Aviation Digital Data Service (ADDS)

Output produced by METARs form (1812 UTC 19 August 2019)
found at http://www.aviationweather.gov/metar/data/
 
METAR text: WSSL 191800Z 14007KT 100V180 9999 FEW016 BKN300 28/24 Q1010
Conditions at: WSSL (SINGAPORE/SELETA, SG) observed 1800 UTC 19 August 2019
Temperature: 28.0°C (82°F)
Dewpoint: 24.0°C (75°F) [RH = 79%]
Pressure (altimeter): 29.82 inches Hg (1010.0 mb)
Winds: from the SE (140 degrees) at 8 MPH (7 knots; 3.6 m/s)
Visibility: 6 or more miles (10+ km)
Ceiling: 30000 feet AGL
Clouds: few clouds at 1600 feet AGL
broken clouds at 30000 feet AGL
Weather: no significant weather observed at this time

Forecast for: WSSL (SINGAPORE/SELETA, SG)
Text: TAF WSSL 191700Z 1918/2100 16010KT 9999 FEW015 SCT020
Forecast period: 1800 UTC 19 August 2019 to 0000 UTC 21 August 2019
Forecast type: FROM: standard forecast or significant change
Winds: from the SSE (160 degrees) at 12 MPH (10 knots; 5.1 m/s)
Visibility: 6 or more miles 10+ km)
Ceiling: at least 12,000 feet AGL
Clouds: few clouds at 1500 feet AGL
scattered clouds at 2000 feet AGL
Weather: no significant weather forecast for this period